Time;durP1;ratioP1;P1;durP2;ratioP2;P2;SDS_P1;SDS_P2;PMS_P1;PMS_P2;Temp;Humidity;BMP_temperature;BMP_pressure;BME280_temperature;BME280_humidity;BME280_pressure;Samples;Min_cycle;Max_cycle;Signal;HPM_P1;HPM_P2
2023/09/22 18:01:21;;;;;;;7.57;5.13;;;;;;;22.26;100.00;99767.91;4993340;27;2447122;-81
2023/09/22 18:03:51;;;;;;;11.43;4.93;;;;;;;22.51;100.00;99765.41;5046674;28;20076;-81
2023/09/22 18:06:20;;;;;;;7.82;4.40;;;;;;;22.65;100.00;99766.75;5029503;28;20052;-81
2023/09/22 18:08:48;;;;;;;8.73;4.40;;;;;;;22.61;100.00;99763.94;5051086;28;20482;-81
2023/09/22 18:11:20;;;;;;;10.20;4.75;;;;;;;22.74;100.00;99772.03;5048700;28;20418;-81
2023/09/22 18:13:48;;;;;;;11.90;4.65;;;;;;;22.75;100.00;99774.44;5052275;28;20040;-81
2023/09/22 18:16:17;;;;;;;9.48;4.45;;;;;;;22.64;100.00;99777.09;5050402;28;20049;-81
2023/09/22 18:18:46;;;;;;;7.88;4.18;;;;;;;22.73;100.00;99787.94;5059300;28;20048;-81
2023/09/22 18:21:15;;;;;;;8.18;4.07;;;;;;;22.76;100.00;99792.78;5065444;28;20052;-82
2023/09/22 18:23:44;;;;;;;10.10;4.88;;;;;;;22.71;100.00;99793.13;5058186;28;20053;-81
2023/09/22 18:26:31;;;;;;;9.23;4.55;;;;;;;22.58;100.00;99800.16;5053569;28;20095;-81
2023/09/22 18:29:01;;;;;;;9.98;4.32;;;;;;;22.49;100.00;99803.19;5061706;28;20049;-82
2023/09/22 18:31:31;;;;;;;4.85;4.22;;;;;;;22.38;100.00;99806.66;5058920;28;20044;-82
2023/09/22 18:34:03;;;;;;;6.88;3.97;;;;;;;22.24;100.00;99793.34;5058842;28;20045;-81
2023/09/22 18:36:33;;;;;;;11.48;4.50;;;;;;;22.28;100.00;99793.41;5047009;28;20494;-81
2023/09/22 18:39:03;;;;;;;7.47;4.50;;;;;;;22.35;100.00;99801.88;5048785;28;20048;-82
2023/09/22 18:41:32;;;;;;;12.45;4.50;;;;;;;22.34;100.00;99811.38;5059641;28;20057;-81
2023/09/22 18:44:01;;;;;;;8.60;4.80;;;;;;;22.34;100.00;99811.38;5053603;28;20053;-82
2023/09/22 18:46:29;;;;;;;10.13;4.82;;;;;;;22.24;100.00;99810.06;5046627;28;20053;-82
2023/09/22 18:48:58;;;;;;;11.43;4.82;;;;;;;22.23;100.00;99814.03;5052109;28;20057;-81
2023/09/22 18:51:26;;;;;;;7.80;5.13;;;;;;;22.18;100.00;99814.38;5052319;28;20049;-81
2023/09/22 18:53:55;;;;;;;5.78;4.10;;;;;;;22.06;100.00;99811.84;5047765;28;20041;-82
2023/09/22 18:56:23;;;;;;;10.18;4.80;;;;;;;21.98;100.00;99836.81;5051880;28;20365;-79
2023/09/22 18:58:52;;;;;;;7.30;5.05;;;;;;;22.01;100.00;99838.81;5049586;28;20045;-82
2023/09/22 19:01:22;;;;;;;10.07;5.38;;;;;;;21.96;100.00;99841.16;5030026;28;20049;-80
2023/09/22 19:03:51;;;;;;;10.35;5.43;;;;;;;22.06;100.00;99853.63;5031738;28;20427;-79
2023/09/22 19:06:20;;;;;;;7.10;4.55;;;;;;;21.99;100.00;99865.44;5027423;28;20416;-81
2023/09/22 19:08:49;;;;;;;8.52;5.15;;;;;;;21.89;100.00;99858.53;5026931;28;20046;-81
2023/09/22 19:11:19;;;;;;;10.55;5.45;;;;;;;21.76;100.00;99866.34;5022653;28;20447;-81
2023/09/22 19:13:49;;;;;;;11.25;5.78;;;;;;;22.00;100.00;99869.88;5027513;28;20628;-80
2023/09/22 19:16:19;;;;;;;9.98;5.72;;;;;;;22.00;100.00;99870.66;5025834;28;20053;-81
2023/09/22 19:18:49;;;;;;;8.75;6.13;;;;;;;21.87;100.00;99866.50;5022637;28;20061;-79
2023/09/22 19:21:25;;;;;;;9.55;5.93;;;;;;;22.01;100.00;99871.47;4985523;28;20045;-81
2023/09/22 19:23:55;;;;;;;12.68;6.47;;;;;;;22.00;100.00;99873.44;4994320;28;20050;-80
2023/09/22 19:26:24;;;;;;;9.80;5.60;;;;;;;22.00;100.00;99875.44;4989726;28;20053;-79
2023/09/22 19:28:53;;;;;;;10.20;5.97;;;;;;;21.81;100.00;99891.06;5003504;28;20049;-81
2023/09/22 19:31:22;;;;;;;11.60;6.53;;;;;;;21.90;100.00;99890.00;4991619;28;20045;-79
2023/09/22 19:33:52;;;;;;;8.48;5.72;;;;;;;21.86;100.00;99901.09;5001658;28;20042;-79
2023/09/22 19:36:21;;;;;;;11.38;6.38;;;;;;;21.85;100.00;99908.63;4998918;28;20112;-81
2023/09/22 19:38:50;;;;;;;10.30;6.88;;;;;;;21.82;100.00;99909.38;4993064;28;20041;-80
2023/09/22 19:41:18;;;;;;;11.80;6.60;;;;;;;21.68;100.00;99915.50;5006807;28;20054;-80
2023/09/22 19:43:48;;;;;;;11.30;6.85;;;;;;;21.69;100.00;99917.09;4993113;28;20050;-79
2023/09/22 19:46:18;;;;;;;13.23;7.22;;;;;;;21.79;100.00;99918.47;4992014;28;20065;-80
2023/09/22 19:48:48;;;;;;;13.38;7.47;;;;;;;21.83;100.00;99913.78;4984204;28;20053;-80
2023/09/22 19:51:17;;;;;;;10.02;6.18;;;;;;;21.80;100.00;99927.66;5008250;28;20045;-80
2023/09/22 19:53:46;;;;;;;12.38;6.90;;;;;;;21.70;100.00;99924.31;4986354;28;20049;-80
2023/09/22 19:56:16;;;;;;;12.60;6.80;;;;;;;21.59;100.00;99921.31;4998536;28;20080;-79
2023/09/22 19:58:45;;;;;;;11.27;6.47;;;;;;;21.58;100.00;99928.06;4988179;28;20053;-80
2023/09/22 20:01:14;;;;;;;10.90;6.88;;;;;;;21.53;100.00;99925.59;5004859;28;20053;-80
2023/09/22 20:03:43;;;;;;;14.25;7.63;;;;;;;21.60;100.00;99936.84;4988235;28;20049;-78
2023/09/22 20:06:13;;;;;;;10.57;6.95;;;;;;;21.61;100.00;99921.75;5011830;28;20054;-80
2023/09/22 20:08:41;;;;;;;10.95;7.03;;;;;;;21.77;100.00;99933.94;5026029;28;20049;-80
2023/09/22 20:11:11;;;;;;;12.57;7.25;;;;;;;21.66;100.00;99934.56;4992971;28;20054;-80
2023/09/22 20:13:43;;;;;;;11.70;6.35;;;;;;;21.56;100.00;99929.59;5011725;28;20041;-78
2023/09/22 20:16:13;;;;;;;12.85;7.68;;;;;;;21.51;100.00;99929.91;5007262;28;20060;-80
2023/09/22 20:18:42;;;;;;;8.63;6.40;;;;;;;21.48;100.00;99929.50;4984767;28;20061;-80
2023/09/22 20:21:12;;;;;;;9.23;6.38;;;;;;;21.50;100.00;99933.88;4987487;28;20061;-81
2023/09/22 20:23:43;;;;;;;8.65;5.63;;;;;;;21.47;100.00;99927.84;4982211;28;20057;-79
2023/09/22 20:26:12;;;;;;;9.63;6.38;;;;;;;21.51;100.00;99938.25;4982333;28;20058;-81
2023/09/22 20:28:41;;;;;;;9.75;5.80;;;;;;;21.67;100.00;99935.34;4998443;28;20056;-63
2023/09/22 20:31:09;;;;;;;10.20;5.88;;;;;;;21.75;100.00;99943.47;5032123;28;20057;-84
2023/09/22 20:33:40;;;;;;;10.60;5.93;;;;;;;21.71;100.00;99948.19;4998755;28;20084;-83
2023/09/22 20:36:13;;;;;;;9.85;5.47;;;;;;;21.57;100.00;99945.13;4999037;28;20049;-83
2023/09/22 20:38:48;;;;;;;9.25;5.60;;;;;;;21.62;100.00;99947.59;4995315;28;20377;-84
2023/09/22 20:41:17;;;;;;;7.15;4.72;;;;;;;21.40;100.00;99955.56;5015189;28;20049;-85
2023/09/22 20:43:48;;;;;;;6.88;4.85;;;;;;;21.39;100.00;99939.22;4996241;28;20046;-85
2023/09/22 20:46:22;;;;;;;9.52;5.15;;;;;;;21.36;100.00;99938.00;4991127;28;20431;-84
2023/09/22 20:48:51;;;;;;;11.68;4.97;;;;;;;21.27;100.00;99935.47;4998107;28;20041;-84
2023/09/22 20:51:20;;;;;;;7.22;4.65;;;;;;;21.35;100.00;99936.38;5006475;28;20064;-83
2023/09/22 20:53:48;;;;;;;6.88;4.53;;;;;;;21.22;100.00;99921.88;5015076;28;20068;-84
2023/09/22 20:56:17;;;;;;;7.53;4.25;;;;;;;21.29;100.00;99933.13;5006661;28;20050;-84
2023/09/22 20:58:47;;;;;;;6.75;4.50;;;;;;;21.39;100.00;99928.09;4998196;28;20056;-84
2023/09/22 21:01:17;;;;;;;7.18;4.90;;;;;;;21.41;100.00;99934.91;4994527;28;20060;-84
2023/09/22 21:03:45;;;;;;;10.07;5.25;;;;;;;21.21;100.00;99939.72;5010031;28;20050;-84
2023/09/22 21:06:14;;;;;;;10.15;4.85;;;;;;;21.24;100.00;99938.97;4994596;28;20054;-70
2023/09/22 21:08:44;;;;;;;8.38;5.15;;;;;;;21.08;100.00;99939.88;5027533;28;20049;-70
2023/09/22 21:11:13;;;;;;;8.68;4.32;;;;;;;20.84;100.00;99934.59;5027005;28;20049;-70
2023/09/22 21:13:41;;;;;;;7.65;4.80;;;;;;;20.71;100.00;99926.41;5023813;28;20061;-70
2023/09/22 21:16:10;;;;;;;6.50;4.00;;;;;;;20.56;100.00;99930.06;5024142;28;20054;-70
2023/09/22 21:18:39;;;;;;;9.75;4.57;;;;;;;20.49;100.00;99922.38;5024527;28;20042;-70
2023/09/22 21:21:08;;;;;;;8.15;4.30;;;;;;;20.42;100.00;99925.78;5029431;28;20400;-70
2023/09/22 21:23:38;;;;;;;7.65;4.15;;;;;;;20.39;100.00;99926.53;5030099;28;20046;-70
2023/09/22 21:26:06;;;;;;;5.45;3.83;;;;;;;20.36;100.00;99924.47;5029728;28;20041;-70
2023/09/22 21:28:37;;;;;;;6.93;3.83;;;;;;;20.26;100.00;99940.53;5031441;28;20050;-70
2023/09/22 21:31:05;;;;;;;4.28;3.58;;;;;;;20.30;100.00;99939.81;5031833;28;20392;-70
2023/09/22 21:33:34;;;;;;;7.68;3.63;;;;;;;20.29;100.00;99939.03;5031499;28;20045;-70
2023/09/22 21:36:03;;;;;;;5.78;3.33;;;;;;;20.22;100.00;99944.38;5031248;28;20041;-70
2023/09/22 21:38:32;;;;;;;5.82;3.50;;;;;;;20.21;100.00;99953.88;5029973;28;20407;-70
2023/09/22 21:41:09;;;;;;;5.13;3.65;;;;;;;20.13;100.00;99950.94;5031344;28;20107;-70
2023/09/22 21:43:39;;;;;;;7.38;3.80;;;;;;;20.12;100.00;99956.88;5031519;28;20045;-70
2023/09/22 21:46:07;;;;;;;6.07;3.92;;;;;;;20.07;100.00;99960.72;5031405;28;20395;-70
2023/09/22 21:48:36;;;;;;;4.93;3.65;;;;;;;19.98;100.00;99968.44;5031571;28;20056;-70
2023/09/22 21:51:06;;;;;;;5.75;3.92;;;;;;;19.97;100.00;99962.09;5031596;28;20451;-70
2023/09/22 21:53:35;;;;;;;7.32;3.90;;;;;;;19.98;100.00;99963.69;5021555;28;21293;-70
2023/09/22 21:56:04;;;;;;;6.28;4.00;;;;;;;19.91;100.00;99965.44;5027977;28;20049;-70
2023/09/22 21:58:32;;;;;;;5.75;3.42;;;;;;;20.00;100.00;99960.56;5028973;28;20061;-70
2023/09/22 22:01:01;;;;;;;5.13;4.13;;;;;;;19.99;100.00;99965.31;5036312;28;20051;-70
2023/09/22 22:03:30;;;;;;;7.88;4.15;;;;;;;19.94;100.00;99957.22;5044790;28;20045;-70
2023/09/22 22:05:58;;;;;;;7.63;3.95;;;;;;;19.84;100.00;99953.00;5046545;28;20045;-70
2023/09/22 22:08:26;;;;;;;6.32;3.85;;;;;;;19.74;100.00;99937.69;5044745;28;20384;-70
2023/09/22 22:10:55;;;;;;;11.32;4.10;;;;;;;19.76;100.00;99931.78;5049974;28;20045;-70
2023/09/22 22:13:27;;;;;;;7.90;3.72;;;;;;;19.74;100.00;99928.56;5038061;28;20064;-70
2023/09/22 22:15:56;;;;;;;7.88;3.60;;;;;;;19.66;100.00;99927.59;5050798;28;20045;-70
2023/09/22 22:18:24;;;;;;;9.32;3.78;;;;;;;19.66;100.00;99929.56;5045476;28;20523;-70
2023/09/22 22:20:51;;;;;;;6.97;3.40;;;;;;;19.58;100.00;99926.59;5049989;28;20064;-70
2023/09/22 22:23:21;;;;;;;7.65;3.38;;;;;;;19.59;100.00;99930.16;5032976;28;20491;-70
2023/09/22 22:25:53;;;;;;;4.32;3.25;;;;;;;19.54;100.00;99933.19;5051564;28;20052;-70
2023/09/22 22:28:21;;;;;;;7.25;3.38;;;;;;;19.48;100.00;99929.91;5051472;28;20049;-70
2023/09/22 22:30:49;;;;;;;5.88;3.13;;;;;;;19.45;100.00;99934.19;5051446;28;20475;-70
2023/09/22 22:33:18;;;;;;;5.75;3.17;;;;;;;19.40;100.00;99936.44;5050904;28;20067;-70
2023/09/22 22:35:47;;;;;;;8.05;3.22;;;;;;;19.43;100.00;99944.03;5051295;28;20049;-70
2023/09/22 22:38:15;;;;;;;4.93;2.95;;;;;;;19.41;100.00;99951.91;5051210;28;20048;-70
2023/09/22 22:40:43;;;;;;;6.35;2.80;;;;;;;19.42;100.00;99954.34;5051333;28;20052;-70
2023/09/22 22:43:11;;;;;;;4.75;3.00;;;;;;;19.38;100.00;99947.88;5050534;28;21621;-70
2023/09/22 22:45:39;;;;;;;6.07;2.90;;;;;;;19.34;100.00;99949.75;5051073;28;20037;-70
2023/09/22 22:48:08;;;;;;;5.47;2.97;;;;;;;19.40;100.00;99947.53;5054627;28;20049;-70
2023/09/22 22:50:37;;;;;;;4.88;3.30;;;;;;;19.37;100.00;99945.47;5054658;28;20051;-70
2023/09/22 22:53:06;;;;;;;6.22;3.33;;;;;;;19.39;100.00;99943.13;5035040;28;20177;-70
2023/09/22 22:55:34;;;;;;;4.35;2.90;;;;;;;19.37;100.00;99937.13;5054490;28;20044;-70
2023/09/22 22:58:05;;;;;;;8.02;3.15;;;;;;;19.34;100.00;99947.78;5054385;28;20041;-70
2023/09/22 23:00:47;;;;;;;7.35;3.60;;;;;;;19.23;100.00;99940.31;5053730;28;20056;-70
2023/09/22 23:03:17;;;;;;;6.47;3.60;;;;;;;19.33;100.00;99950.91;5052211;28;20399;-70
2023/09/22 23:05:48;;;;;;;6.68;3.65;;;;;;;19.26;100.00;99950.72;5054160;28;20047;-70
2023/09/22 23:08:16;;;;;;;5.40;3.90;;;;;;;19.19;100.00;99954.09;5054644;28;20052;-70
2023/09/22 23:10:44;;;;;;;6.22;4.07;;;;;;;19.18;100.00;99945.00;5054116;28;20045;-70
2023/09/22 23:13:34;;;;;;;8.38;4.38;;;;;;;19.18;100.00;99946.94;5054404;28;20403;-70
2023/09/22 23:16:04;;;;;;;9.02;4.45;;;;;;;19.17;100.00;99950.88;5054032;28;20047;-70
2023/09/22 23:18:35;;;;;;;11.52;5.03;;;;;;;19.04;100.00;99945.41;5054219;28;20471;-70
2023/09/22 23:21:04;;;;;;;11.93;5.07;;;;;;;19.03;100.00;99949.34;5036584;28;20045;-70
2023/09/22 23:23:33;;;;;;;10.48;5.40;;;;;;;18.93;100.00;99950.59;5053883;28;20056;-70
2023/09/22 23:26:05;;;;;;;12.52;5.20;;;;;;;18.87;100.00;99951.22;5054365;28;20040;-70
2023/09/22 23:28:35;;;;;;;9.93;4.90;;;;;;;18.79;100.00;99948.25;5054381;28;20045;-70
2023/09/22 23:31:04;;;;;;;8.73;4.18;;;;;;;18.76;100.00;99950.88;5037782;28;20056;-71
2023/09/22 23:33:33;;;;;;;11.77;5.47;;;;;;;18.84;100.00;99951.91;5053652;28;20514;-70
2023/09/22 23:36:03;;;;;;;7.00;4.65;;;;;;;18.86;100.00;99949.59;5035820;28;20051;-70
2023/09/22 23:38:32;;;;;;;7.90;4.40;;;;;;;18.81;100.00;99942.31;5054013;28;20072;-70
2023/09/22 23:41:06;;;;;;;12.48;4.78;;;;;;;18.94;100.00;99941.16;5053744;28;20044;-70
2023/09/22 23:43:35;;;;;;;8.10;3.97;;;;;;;18.88;100.00;99950.03;5054124;28;20045;-70
2023/09/22 23:46:09;;;;;;;6.95;4.13;;;;;;;18.90;100.00;99950.50;5053903;28;20041;-70
2023/09/22 23:48:37;;;;;;;5.50;3.80;;;;;;;18.90;100.00;99956.03;5035969;28;20055;-70
2023/09/22 23:51:07;;;;;;;7.07;4.07;;;;;;;18.89;100.00;99949.72;5053214;28;20044;-70
2023/09/22 23:53:37;;;;;;;11.20;3.95;;;;;;;18.86;100.00;99949.59;5053871;28;20041;-70
2023/09/22 23:56:05;;;;;;;6.90;3.45;;;;;;;18.86;100.00;99955.16;5036046;28;20056;-70
2023/09/22 23:58:34;;;;;;;8.27;3.63;;;;;;;18.88;100.00;99950.03;5053446;28;20060;-70
